sensor_id;sensor_type;location;lat;lon;timestamp;temperature;humidity
15452;DHT22;7827;53.594;9.938;2023-09-19T00:01:47;17.70;15.60
15452;DHT22;7827;53.594;9.938;2023-09-19T00:04:17;17.80;10.90
15452;DHT22;7827;53.594;9.938;2023-09-19T00:06:50;17.80;11.10
15452;DHT22;7827;53.594;9.938;2023-09-19T00:09:20;17.70;17.00
15452;DHT22;7827;53.594;9.938;2023-09-19T00:11:50;17.70;14.20
15452;DHT22;7827;53.594;9.938;2023-09-19T00:14:18;17.70;12.20
15452;DHT22;7827;53.594;9.938;2023-09-19T00:16:46;17.70;17.60
15452;DHT22;7827;53.594;9.938;2023-09-19T00:19:18;17.70;21.50
15452;DHT22;7827;53.594;9.938;2023-09-19T00:21:46;17.70;23.40
15452;DHT22;7827;53.594;9.938;2023-09-19T00:24:14;17.60;30.30
15452;DHT22;7827;53.594;9.938;2023-09-19T00:26:44;17.60;37.80
15452;DHT22;7827;53.594;9.938;2023-09-19T00:29:15;17.60;40.00
15452;DHT22;7827;53.594;9.938;2023-09-19T00:31:44;17.50;48.40
15452;DHT22;7827;53.594;9.938;2023-09-19T00:34:14;17.50;44.70
15452;DHT22;7827;53.594;9.938;2023-09-19T00:36:45;17.50;43.20
15452;DHT22;7827;53.594;9.938;2023-09-19T00:39:13;17.60;40.60
15452;DHT22;7827;53.594;9.938;2023-09-19T00:41:42;17.50;35.10
15452;DHT22;7827;53.594;9.938;2023-09-19T00:44:11;17.50;34.50
15452;DHT22;7827;53.594;9.938;2023-09-19T00:46:40;17.50;38.00
15452;DHT22;7827;53.594;9.938;2023-09-19T00:49:09;17.50;32.30
15452;DHT22;7827;53.594;9.938;2023-09-19T00:51:38;17.50;45.70
15452;DHT22;7827;53.594;9.938;2023-09-19T00:54:10;17.50;43.60
15452;DHT22;7827;53.594;9.938;2023-09-19T00:56:39;17.50;44.00
15452;DHT22;7827;53.594;9.938;2023-09-19T00:59:09;17.60;43.90
15452;DHT22;7827;53.594;9.938;2023-09-19T01:01:39;17.60;28.60
15452;DHT22;7827;53.594;9.938;2023-09-19T01:04:08;17.50;39.70
15452;DHT22;7827;53.594;9.938;2023-09-19T01:06:37;17.50;51.50
15452;DHT22;7827;53.594;9.938;2023-09-19T01:09:06;17.50;58.80
15452;DHT22;7827;53.594;9.938;2023-09-19T01:11:42;17.50;51.80
15452;DHT22;7827;53.594;9.938;2023-09-19T01:14:20;17.50;53.00
15452;DHT22;7827;53.594;9.938;2023-09-19T01:17:03;17.50;51.00
15452;DHT22;7827;53.594;9.938;2023-09-19T01:20:19;17.50;57.00
15452;DHT22;7827;53.594;9.938;2023-09-19T01:23:05;17.50;39.00
15452;DHT22;7827;53.594;9.938;2023-09-19T01:25:56;17.50;48.30
15452;DHT22;7827;53.594;9.938;2023-09-19T01:28:57;17.50;51.80
15452;DHT22;7827;53.594;9.938;2023-09-19T01:31:42;17.50;45.20
15452;DHT22;7827;53.594;9.938;2023-09-19T01:34:13;17.40;58.20
15452;DHT22;7827;53.594;9.938;2023-09-19T01:36:41;17.40;51.80
15452;DHT22;7827;53.594;9.938;2023-09-19T01:39:11;17.40;39.40
15452;DHT22;7827;53.594;9.938;2023-09-19T01:41:51;17.40;24.60
15452;DHT22;7827;53.594;9.938;2023-09-19T01:44:35;17.40;26.80
15452;DHT22;7827;53.594;9.938;2023-09-19T01:47:17;17.40;27.60
15452;DHT22;7827;53.594;9.938;2023-09-19T01:49:55;17.30;1.00
15452;DHT22;7827;53.594;9.938;2023-09-19T01:52:38;17.30;1.00
15452;DHT22;7827;53.594;9.938;2023-09-19T01:55:15;17.30;1.00
15452;DHT22;7827;53.594;9.938;2023-09-19T01:57:54;17.30;1.00
15452;DHT22;7827;53.594;9.938;2023-09-19T02:00:41;17.30;1.00
15452;DHT22;7827;53.594;9.938;2023-09-19T02:03:13;17.30;1.00
15452;DHT22;7827;53.594;9.938;2023-09-19T02:05:48;17.20;1.00
15452;DHT22;7827;53.594;9.938;2023-09-19T02:08:19;17.10;1.00
15452;DHT22;7827;53.594;9.938;2023-09-19T02:10:50;17.10;1.00
15452;DHT22;7827;53.594;9.938;2023-09-19T02:13:20;17.00;1.00
15452;DHT22;7827;53.594;9.938;2023-09-19T02:15:52;17.00;1.00
15452;DHT22;7827;53.594;9.938;2023-09-19T02:18:21;17.00;1.00
15452;DHT22;7827;53.594;9.938;2023-09-19T02:20:50;16.90;1.00
15452;DHT22;7827;53.594;9.938;2023-09-19T02:23:20;16.90;1.00
15452;DHT22;7827;53.594;9.938;2023-09-19T02:25:52;16.90;1.00
15452;DHT22;7827;53.594;9.938;2023-09-19T02:28:21;16.90;9.00
15452;DHT22;7827;53.594;9.938;2023-09-19T02:30:50;16.90;23.00
15452;DHT22;7827;53.594;9.938;2023-09-19T02:33:20;16.90;29.10
15452;DHT22;7827;53.594;9.938;2023-09-19T02:35:55;16.90;31.60
15452;DHT22;7827;53.594;9.938;2023-09-19T02:38:26;16.90;50.50
15452;DHT22;7827;53.594;9.938;2023-09-19T02:40:55;16.80;54.90
15452;DHT22;7827;53.594;9.938;2023-09-19T02:43:24;16.80;74.10
15452;DHT22;7827;53.594;9.938;2023-09-19T02:45:53;16.80;78.30
15452;DHT22;7827;53.594;9.938;2023-09-19T02:48:25;16.80;91.90
15452;DHT22;7827;53.594;9.938;2023-09-19T02:50:54;16.80;91.10
15452;DHT22;7827;53.594;9.938;2023-09-19T02:53:24;16.80;92.70
15452;DHT22;7827;53.594;9.938;2023-09-19T02:55:52;16.80;94.30
15452;DHT22;7827;53.594;9.938;2023-09-19T02:58:22;16.80;91.90
15452;DHT22;7827;53.594;9.938;2023-09-19T03:00:52;16.80;87.10
15452;DHT22;7827;53.594;9.938;2023-09-19T03:03:25;16.80;78.60
15452;DHT22;7827;53.594;9.938;2023-09-19T03:05:56;16.80;60.60
15452;DHT22;7827;53.594;9.938;2023-09-19T03:08:26;16.80;54.70
15452;DHT22;7827;53.594;9.938;2023-09-19T03:10:54;16.90;44.40
15452;DHT22;7827;53.594;9.938;2023-09-19T03:13:23;16.90;27.10
15452;DHT22;7827;53.594;9.938;2023-09-19T03:15:54;16.90;24.20
15452;DHT22;7827;53.594;9.938;2023-09-19T03:18:27;16.80;1.00
15452;DHT22;7827;53.594;9.938;2023-09-19T03:20:56;16.80;1.00
15452;DHT22;7827;53.594;9.938;2023-09-19T03:23:27;16.80;1.00
15452;DHT22;7827;53.594;9.938;2023-09-19T03:25:57;16.90;1.00
15452;DHT22;7827;53.594;9.938;2023-09-19T03:28:26;16.90;1.00
15452;DHT22;7827;53.594;9.938;2023-09-19T03:30:58;16.90;1.00
15452;DHT22;7827;53.594;9.938;2023-09-19T03:33:31;16.90;1.00
15452;DHT22;7827;53.594;9.938;2023-09-19T03:36:01;16.90;1.00
15452;DHT22;7827;53.594;9.938;2023-09-19T03:38:32;16.80;1.00
15452;DHT22;7827;53.594;9.938;2023-09-19T03:41:02;16.80;1.00
15452;DHT22;7827;53.594;9.938;2023-09-19T03:43:33;16.70;5.40
15452;DHT22;7827;53.594;9.938;2023-09-19T03:46:03;16.80;4.30
15452;DHT22;7827;53.594;9.938;2023-09-19T03:48:34;16.70;7.80
15452;DHT22;7827;53.594;9.938;2023-09-19T03:51:03;16.70;6.00
15452;DHT22;7827;53.594;9.938;2023-09-19T03:53:32;16.70;18.40
15452;DHT22;7827;53.594;9.938;2023-09-19T03:56:00;16.70;18.30
15452;DHT22;7827;53.594;9.938;2023-09-19T03:58:32;16.70;45.40
15452;DHT22;7827;53.594;9.938;2023-09-19T04:01:05;16.70;11.80
15452;DHT22;7827;53.594;9.938;2023-09-19T04:03:35;16.80;1.30
15452;DHT22;7827;53.594;9.938;2023-09-19T04:06:13;16.70;1.00
15452;DHT22;7827;53.594;9.938;2023-09-19T04:08:42;16.70;1.00
15452;DHT22;7827;53.594;9.938;2023-09-19T04:11:11;16.70;1.00
15452;DHT22;7827;53.594;9.938;2023-09-19T04:13:40;16.70;1.00
15452;DHT22;7827;53.594;9.938;2023-09-19T04:16:09;16.50;1.00
15452;DHT22;7827;53.594;9.938;2023-09-19T04:18:39;16.50;1.00
15452;DHT22;7827;53.594;9.938;2023-09-19T04:21:08;16.40;1.00
15452;DHT22;7827;53.594;9.938;2023-09-19T04:23:36;16.30;1.00
15452;DHT22;7827;53.594;9.938;2023-09-19T04:26:05;16.20;1.00
15452;DHT22;7827;53.594;9.938;2023-09-19T04:28:34;16.10;1.00
15452;DHT22;7827;53.594;9.938;2023-09-19T04:31:05;16.10;1.00
15452;DHT22;7827;53.594;9.938;2023-09-19T04:33:35;16.10;1.00
15452;DHT22;7827;53.594;9.938;2023-09-19T04:36:06;16.10;1.00
15452;DHT22;7827;53.594;9.938;2023-09-19T04:38:55;16.00;1.00
15452;DHT22;7827;53.594;9.938;2023-09-19T04:41:23;16.10;1.00
15452;DHT22;7827;53.594;9.938;2023-09-19T04:43:51;16.00;99.90
15452;DHT22;7827;53.594;9.938;2023-09-19T04:46:20;16.00;1.00
15452;DHT22;7827;53.594;9.938;2023-09-19T04:48:48;15.90;1.00
15452;DHT22;7827;53.594;9.938;2023-09-19T04:51:18;15.90;1.00
15452;DHT22;7827;53.594;9.938;2023-09-19T04:53:47;15.90;99.90
15452;DHT22;7827;53.594;9.938;2023-09-19T04:56:16;15.90;99.90
15452;DHT22;7827;53.594;9.938;2023-09-19T04:58:44;15.80;1.00
15452;DHT22;7827;53.594;9.938;2023-09-19T05:01:13;15.80;99.90
15452;DHT22;7827;53.594;9.938;2023-09-19T05:03:43;15.80;1.00
15452;DHT22;7827;53.594;9.938;2023-09-19T05:06:12;15.80;1.00
15452;DHT22;7827;53.594;9.938;2023-09-19T05:08:41;15.80;1.00
15452;DHT22;7827;53.594;9.938;2023-09-19T05:11:10;15.80;1.00
15452;DHT22;7827;53.594;9.938;2023-09-19T05:13:38;15.80;1.00
15452;DHT22;7827;53.594;9.938;2023-09-19T05:16:07;15.80;1.00
15452;DHT22;7827;53.594;9.938;2023-09-19T05:18:37;15.80;1.00
15452;DHT22;7827;53.594;9.938;2023-09-19T05:21:05;15.80;1.00
15452;DHT22;7827;53.594;9.938;2023-09-19T05:23:35;15.70;1.00
15452;DHT22;7827;53.594;9.938;2023-09-19T05:26:05;15.70;1.00
15452;DHT22;7827;53.594;9.938;2023-09-19T05:28:34;15.80;1.00
15452;DHT22;7827;53.594;9.938;2023-09-19T05:31:02;15.70;1.00
15452;DHT22;7827;53.594;9.938;2023-09-19T05:33:31;15.70;1.00
15452;DHT22;7827;53.594;9.938;2023-09-19T05:36:00;15.70;1.00
15452;DHT22;7827;53.594;9.938;2023-09-19T05:38:28;15.70;1.00
15452;DHT22;7827;53.594;9.938;2023-09-19T05:40:57;15.80;1.00
15452;DHT22;7827;53.594;9.938;2023-09-19T05:43:27;15.70;1.00
15452;DHT22;7827;53.594;9.938;2023-09-19T05:45:55;15.70;1.00
15452;DHT22;7827;53.594;9.938;2023-09-19T05:48:23;15.70;1.00
15452;DHT22;7827;53.594;9.938;2023-09-19T05:50:52;15.60;1.00
15452;DHT22;7827;53.594;9.938;2023-09-19T05:53:20;15.60;1.00
15452;DHT22;7827;53.594;9.938;2023-09-19T05:55:50;15.70;1.00
15452;DHT22;7827;53.594;9.938;2023-09-19T05:58:20;15.70;1.00
15452;DHT22;7827;53.594;9.938;2023-09-19T06:00:50;15.80;1.00
15452;DHT22;7827;53.594;9.938;2023-09-19T06:03:19;15.70;1.00
15452;DHT22;7827;53.594;9.938;2023-09-19T06:05:47;15.80;1.00
15452;DHT22;7827;53.594;9.938;2023-09-19T06:08:16;15.80;1.00
15452;DHT22;7827;53.594;9.938;2023-09-19T06:10:45;15.80;1.00
15452;DHT22;7827;53.594;9.938;2023-09-19T06:13:16;15.80;1.00
15452;DHT22;7827;53.594;9.938;2023-09-19T06:15:44;15.90;1.00
15452;DHT22;7827;53.594;9.938;2023-09-19T06:18:14;16.00;1.00
15452;DHT22;7827;53.594;9.938;2023-09-19T06:20:47;16.10;1.00
15452;DHT22;7827;53.594;9.938;2023-09-19T06:23:18;16.10;1.00
15452;DHT22;7827;53.594;9.938;2023-09-19T06:25:49;16.10;1.00
15452;DHT22;7827;53.594;9.938;2023-09-19T06:28:18;16.20;1.00
15452;DHT22;7827;53.594;9.938;2023-09-19T06:30:50;16.30;1.00
15452;DHT22;7827;53.594;9.938;2023-09-19T06:33:20;16.30;1.00
15452;DHT22;7827;53.594;9.938;2023-09-19T06:35:49;16.30;99.90
15452;DHT22;7827;53.594;9.938;2023-09-19T06:38:19;16.30;99.90
15452;DHT22;7827;53.594;9.938;2023-09-19T06:40:48;16.40;99.90
15452;DHT22;7827;53.594;9.938;2023-09-19T06:43:17;16.30;99.90
15452;DHT22;7827;53.594;9.938;2023-09-19T06:45:46;16.40;99.90
15452;DHT22;7827;53.594;9.938;2023-09-19T06:48:14;16.40;99.90
15452;DHT22;7827;53.594;9.938;2023-09-19T06:50:44;16.40;99.90
15452;DHT22;7827;53.594;9.938;2023-09-19T06:53:15;16.40;99.90
15452;DHT22;7827;53.594;9.938;2023-09-19T06:55:43;16.40;99.90
15452;DHT22;7827;53.594;9.938;2023-09-19T06:58:12;16.50;99.90
15452;DHT22;7827;53.594;9.938;2023-09-19T07:00:40;16.60;99.90
15452;DHT22;7827;53.594;9.938;2023-09-19T07:03:09;16.60;99.90
15452;DHT22;7827;53.594;9.938;2023-09-19T07:05:39;16.70;99.90
15452;DHT22;7827;53.594;9.938;2023-09-19T07:08:11;16.80;1.00
15452;DHT22;7827;53.594;9.938;2023-09-19T07:10:41;16.80;99.90
15452;DHT22;7827;53.594;9.938;2023-09-19T07:13:16;16.80;99.90
15452;DHT22;7827;53.594;9.938;2023-09-19T07:15:45;16.70;99.90
15452;DHT22;7827;53.594;9.938;2023-09-19T07:18:15;16.80;99.90
15452;DHT22;7827;53.594;9.938;2023-09-19T07:20:45;16.70;99.90
15452;DHT22;7827;53.594;9.938;2023-09-19T07:23:19;16.70;99.90
15452;DHT22;7827;53.594;9.938;2023-09-19T07:25:50;16.80;99.90
15452;DHT22;7827;53.594;9.938;2023-09-19T07:28:18;16.80;99.90
15452;DHT22;7827;53.594;9.938;2023-09-19T07:30:47;16.80;99.90
15452;DHT22;7827;53.594;9.938;2023-09-19T07:33:15;16.90;70.70
15452;DHT22;7827;53.594;9.938;2023-09-19T07:35:45;16.90;99.90
15452;DHT22;7827;53.594;9.938;2023-09-19T07:38:14;16.90;99.90
15452;DHT22;7827;53.594;9.938;2023-09-19T07:40:45;16.90;99.90
15452;DHT22;7827;53.594;9.938;2023-09-19T07:43:13;16.90;76.80
15452;DHT22;7827;53.594;9.938;2023-09-19T07:45:42;16.80;99.90
15452;DHT22;7827;53.594;9.938;2023-09-19T07:48:10;16.80;99.90
15452;DHT22;7827;53.594;9.938;2023-09-19T07:50:41;16.90;99.90
15452;DHT22;7827;53.594;9.938;2023-09-19T07:53:11;16.80;1.00
15452;DHT22;7827;53.594;9.938;2023-09-19T07:55:40;16.70;1.00
15452;DHT22;7827;53.594;9.938;2023-09-19T07:58:11;16.40;1.00
15452;DHT22;7827;53.594;9.938;2023-09-19T08:00:40;16.20;1.00
15452;DHT22;7827;53.594;9.938;2023-09-19T08:03:08;16.10;1.00
15452;DHT22;7827;53.594;9.938;2023-09-19T08:05:44;16.10;12.40
15452;DHT22;7827;53.594;9.938;2023-09-19T08:08:13;16.00;18.00
15452;DHT22;7827;53.594;9.938;2023-09-19T08:10:57;16.20;27.90
15452;DHT22;7827;53.594;9.938;2023-09-19T08:13:53;16.10;23.60
15452;DHT22;7827;53.594;9.938;2023-09-19T08:16:48;16.00;31.40
15452;DHT22;7827;53.594;9.938;2023-09-19T08:19:37;15.90;28.00
15452;DHT22;7827;53.594;9.938;2023-09-19T08:22:38;15.90;35.30
15452;DHT22;7827;53.594;9.938;2023-09-19T08:25:09;16.10;37.90
15452;DHT22;7827;53.594;9.938;2023-09-19T08:27:45;16.10;18.90
15452;DHT22;7827;53.594;9.938;2023-09-19T08:30:20;16.30;1.30
15452;DHT22;7827;53.594;9.938;2023-09-19T08:32:57;16.30;1.00
15452;DHT22;7827;53.594;9.938;2023-09-19T08:35:26;16.20;1.00
15452;DHT22;7827;53.594;9.938;2023-09-19T08:37:55;16.40;1.00
15452;DHT22;7827;53.594;9.938;2023-09-19T08:40:24;16.50;1.00
15452;DHT22;7827;53.594;9.938;2023-09-19T08:42:57;16.60;1.00
15452;DHT22;7827;53.594;9.938;2023-09-19T08:45:27;16.60;1.00
15452;DHT22;7827;53.594;9.938;2023-09-19T08:48:03;16.60;1.00
15452;DHT22;7827;53.594;9.938;2023-09-19T08:50:43;16.60;1.00
15452;DHT22;7827;53.594;9.938;2023-09-19T08:53:27;16.80;1.00
15452;DHT22;7827;53.594;9.938;2023-09-19T08:56:01;16.70;1.00
15452;DHT22;7827;53.594;9.938;2023-09-19T08:58:39;16.70;1.00
15452;DHT22;7827;53.594;9.938;2023-09-19T09:01:16;16.70;99.90
15452;DHT22;7827;53.594;9.938;2023-09-19T09:03:53;16.80;1.00
15452;DHT22;7827;53.594;9.938;2023-09-19T09:06:23;16.90;99.90
15452;DHT22;7827;53.594;9.938;2023-09-19T09:08:53;16.90;99.90
15452;DHT22;7827;53.594;9.938;2023-09-19T09:11:22;16.90;99.90
15452;DHT22;7827;53.594;9.938;2023-09-19T09:13:52;17.00;99.90
15452;DHT22;7827;53.594;9.938;2023-09-19T09:16:21;17.20;99.90
15452;DHT22;7827;53.594;9.938;2023-09-19T09:18:53;17.40;99.90
15452;DHT22;7827;53.594;9.938;2023-09-19T09:21:25;17.40;99.90
15452;DHT22;7827;53.594;9.938;2023-09-19T09:23:54;17.40;1.00
15452;DHT22;7827;53.594;9.938;2023-09-19T09:26:44;17.40;55.20
15452;DHT22;7827;53.594;9.938;2023-09-19T09:29:42;17.40;1.00
15452;DHT22;7827;53.594;9.938;2023-09-19T09:32:19;17.50;1.00
15452;DHT22;7827;53.594;9.938;2023-09-19T09:35:00;17.50;25.30
15452;DHT22;7827;53.594;9.938;2023-09-19T09:38:01;17.60;1.00
15452;DHT22;7827;53.594;9.938;2023-09-19T09:40:46;17.60;1.00
15452;DHT22;7827;53.594;9.938;2023-09-19T09:43:30;17.70;99.90
15452;DHT22;7827;53.594;9.938;2023-09-19T09:46:07;17.80;99.90
15452;DHT22;7827;53.594;9.938;2023-09-19T09:49:01;17.90;1.00
15452;DHT22;7827;53.594;9.938;2023-09-19T09:51:48;18.10;1.00
15452;DHT22;7827;53.594;9.938;2023-09-19T09:54:27;18.10;1.00
15452;DHT22;7827;53.594;9.938;2023-09-19T09:57:03;18.20;99.90
15452;DHT22;7827;53.594;9.938;2023-09-19T09:59:45;18.20;1.00
15452;DHT22;7827;53.594;9.938;2023-09-19T10:02:18;18.30;99.90
15452;DHT22;7827;53.594;9.938;2023-09-19T10:04:55;18.30;64.60
15452;DHT22;7827;53.594;9.938;2023-09-19T10:07:36;18.30;1.00
15452;DHT22;7827;53.594;9.938;2023-09-19T10:10:11;18.30;1.00
15452;DHT22;7827;53.594;9.938;2023-09-19T10:12:48;18.40;1.00
15452;DHT22;7827;53.594;9.938;2023-09-19T10:15:19;18.60;90.30
15452;DHT22;7827;53.594;9.938;2023-09-19T10:17:48;18.70;80.30
15452;DHT22;7827;53.594;9.938;2023-09-19T10:20:20;18.70;99.90
15452;DHT22;7827;53.594;9.938;2023-09-19T10:23:06;18.70;1.00
15452;DHT22;7827;53.594;9.938;2023-09-19T10:25:41;18.60;1.00
15452;DHT22;7827;53.594;9.938;2023-09-19T10:28:11;18.60;99.90
15452;DHT22;7827;53.594;9.938;2023-09-19T10:30:45;18.70;1.00
15452;DHT22;7827;53.594;9.938;2023-09-19T10:33:17;18.60;1.00
15452;DHT22;7827;53.594;9.938;2023-09-19T10:35:50;18.60;99.90
15452;DHT22;7827;53.594;9.938;2023-09-19T10:38:23;18.60;1.00
15452;DHT22;7827;53.594;9.938;2023-09-19T10:40:55;18.60;99.90
15452;DHT22;7827;53.594;9.938;2023-09-19T10:43:30;18.60;99.90
15452;DHT22;7827;53.594;9.938;2023-09-19T10:46:06;18.60;1.00
15452;DHT22;7827;53.594;9.938;2023-09-19T10:48:38;18.60;1.00
15452;DHT22;7827;53.594;9.938;2023-09-19T10:51:15;18.60;99.90
15452;DHT22;7827;53.594;9.938;2023-09-19T10:53:49;18.70;99.90
15452;DHT22;7827;53.594;9.938;2023-09-19T10:56:24;18.80;1.00
15452;DHT22;7827;53.594;9.938;2023-09-19T10:59:07;18.90;32.20
15452;DHT22;7827;53.594;9.938;2023-09-19T11:01:45;18.90;1.00
15452;DHT22;7827;53.594;9.938;2023-09-19T11:04:23;19.00;1.00
15452;DHT22;7827;53.594;9.938;2023-09-19T11:07:05;18.90;1.00
15452;DHT22;7827;53.594;9.938;2023-09-19T11:09:49;18.90;1.00
15452;DHT22;7827;53.594;9.938;2023-09-19T11:12:48;18.90;1.00
15452;DHT22;7827;53.594;9.938;2023-09-19T11:18:56;18.90;1.00
15452;DHT22;7827;53.594;9.938;2023-09-19T11:21:53;18.70;99.90
15452;DHT22;7827;53.594;9.938;2023-09-19T11:24:30;18.70;1.00
15452;DHT22;7827;53.594;9.938;2023-09-19T11:27:16;18.70;99.90
15452;DHT22;7827;53.594;9.938;2023-09-19T11:29:45;18.70;6.60
15452;DHT22;7827;53.594;9.938;2023-09-19T11:32:15;18.80;1.00
15452;DHT22;7827;53.594;9.938;2023-09-19T11:34:48;18.80;1.00
15452;DHT22;7827;53.594;9.938;2023-09-19T11:40:47;19.20;55.70
15452;DHT22;7827;53.594;9.938;2023-09-19T11:43:31;19.30;1.00
15452;DHT22;7827;53.594;9.938;2023-09-19T11:46:03;19.30;1.00
15452;DHT22;7827;53.594;9.938;2023-09-19T11:48:41;19.20;99.90
15452;DHT22;7827;53.594;9.938;2023-09-19T11:51:12;19.10;99.90
15452;DHT22;7827;53.594;9.938;2023-09-19T11:53:50;19.00;1.00
15452;DHT22;7827;53.594;9.938;2023-09-19T11:56:21;19.10;1.00
15452;DHT22;7827;53.594;9.938;2023-09-19T11:58:52;19.10;99.90
15452;DHT22;7827;53.594;9.938;2023-09-19T12:01:24;19.10;1.00
15452;DHT22;7827;53.594;9.938;2023-09-19T12:03:57;19.20;99.90
15452;DHT22;7827;53.594;9.938;2023-09-19T12:06:28;19.20;99.90
15452;DHT22;7827;53.594;9.938;2023-09-19T12:08:57;19.20;99.90
15452;DHT22;7827;53.594;9.938;2023-09-19T12:11:41;19.20;99.90
15452;DHT22;7827;53.594;9.938;2023-09-19T12:14:11;19.20;99.90
15452;DHT22;7827;53.594;9.938;2023-09-19T12:16:53;19.10;99.90
15452;DHT22;7827;53.594;9.938;2023-09-19T12:19:23;19.10;1.00
15452;DHT22;7827;53.594;9.938;2023-09-19T12:21:58;19.20;99.90
15452;DHT22;7827;53.594;9.938;2023-09-19T12:24:33;19.20;66.40
15452;DHT22;7827;53.594;9.938;2023-09-19T12:27:07;19.20;99.90
15452;DHT22;7827;53.594;9.938;2023-09-19T12:29:44;19.30;99.90
15452;DHT22;7827;53.594;9.938;2023-09-19T12:32:13;19.40;99.90
15452;DHT22;7827;53.594;9.938;2023-09-19T12:34:51;19.50;90.20
15452;DHT22;7827;53.594;9.938;2023-09-19T12:37:22;19.60;72.30
15452;DHT22;7827;53.594;9.938;2023-09-19T12:40:04;19.60;1.00
15452;DHT22;7827;53.594;9.938;2023-09-19T12:42:44;19.70;1.00
15452;DHT22;7827;53.594;9.938;2023-09-19T12:45:14;19.70;1.00
15452;DHT22;7827;53.594;9.938;2023-09-19T12:51:00;19.80;1.00
15452;DHT22;7827;53.594;9.938;2023-09-19T12:53:34;19.80;1.00
15452;DHT22;7827;53.594;9.938;2023-09-19T12:56:08;19.80;1.00
15452;DHT22;7827;53.594;9.938;2023-09-19T12:58:51;19.90;1.00
15452;DHT22;7827;53.594;9.938;2023-09-19T13:01:22;19.80;99.90
15452;DHT22;7827;53.594;9.938;2023-09-19T13:04:14;19.80;1.00
15452;DHT22;7827;53.594;9.938;2023-09-19T13:06:46;19.80;1.00
15452;DHT22;7827;53.594;9.938;2023-09-19T13:09:17;19.80;1.00
15452;DHT22;7827;53.594;9.938;2023-09-19T13:11:48;19.90;99.90
15452;DHT22;7827;53.594;9.938;2023-09-19T13:14:21;20.00;99.90
15452;DHT22;7827;53.594;9.938;2023-09-19T13:16:59;20.00;99.90
15452;DHT22;7827;53.594;9.938;2023-09-19T13:19:38;20.00;99.90
15452;DHT22;7827;53.594;9.938;2023-09-19T13:22:36;20.00;99.90
15452;DHT22;7827;53.594;9.938;2023-09-19T13:25:07;19.90;99.90
15452;DHT22;7827;53.594;9.938;2023-09-19T13:27:42;20.00;1.00
15452;DHT22;7827;53.594;9.938;2023-09-19T13:30:14;20.00;1.00
15452;DHT22;7827;53.594;9.938;2023-09-19T13:32:43;20.20;1.00
15452;DHT22;7827;53.594;9.938;2023-09-19T13:35:11;20.20;99.90
15452;DHT22;7827;53.594;9.938;2023-09-19T13:37:41;20.20;99.90
15452;DHT22;7827;53.594;9.938;2023-09-19T13:40:14;20.10;99.90
15452;DHT22;7827;53.594;9.938;2023-09-19T13:42:43;20.10;1.00
15452;DHT22;7827;53.594;9.938;2023-09-19T13:45:16;20.10;99.90
15452;DHT22;7827;53.594;9.938;2023-09-19T13:47:48;20.20;99.90
15452;DHT22;7827;53.594;9.938;2023-09-19T13:50:17;20.10;99.90
15452;DHT22;7827;53.594;9.938;2023-09-19T13:52:51;20.20;99.90
15452;DHT22;7827;53.594;9.938;2023-09-19T13:55:20;20.10;99.90
15452;DHT22;7827;53.594;9.938;2023-09-19T13:57:48;20.10;99.90
15452;DHT22;7827;53.594;9.938;2023-09-19T14:00:21;20.20;99.90
15452;DHT22;7827;53.594;9.938;2023-09-19T14:02:49;20.20;99.90
15452;DHT22;7827;53.594;9.938;2023-09-19T14:05:19;20.10;99.90
15452;DHT22;7827;53.594;9.938;2023-09-19T14:07:48;20.00;99.90
15452;DHT22;7827;53.594;9.938;2023-09-19T14:10:17;19.80;99.90
15452;DHT22;7827;53.594;9.938;2023-09-19T14:12:46;19.80;99.90
15452;DHT22;7827;53.594;9.938;2023-09-19T14:15:14;19.80;1.00
15452;DHT22;7827;53.594;9.938;2023-09-19T14:17:48;19.90;99.90
15452;DHT22;7827;53.594;9.938;2023-09-19T14:20:17;19.90;99.90
15452;DHT22;7827;53.594;9.938;2023-09-19T14:22:46;19.90;99.90
15452;DHT22;7827;53.594;9.938;2023-09-19T14:25:15;19.90;99.90
15452;DHT22;7827;53.594;9.938;2023-09-19T14:27:44;19.80;99.90
15452;DHT22;7827;53.594;9.938;2023-09-19T14:30:13;19.80;99.90
15452;DHT22;7827;53.594;9.938;2023-09-19T14:32:41;19.80;99.90
15452;DHT22;7827;53.594;9.938;2023-09-19T14:35:11;19.70;99.90
15452;DHT22;7827;53.594;9.938;2023-09-19T14:37:41;19.80;1.00
15452;DHT22;7827;53.594;9.938;2023-09-19T14:40:10;19.90;1.00
15452;DHT22;7827;53.594;9.938;2023-09-19T14:42:43;19.90;99.90
15452;DHT22;7827;53.594;9.938;2023-09-19T14:45:12;19.80;1.00
15452;DHT22;7827;53.594;9.938;2023-09-19T14:47:43;19.80;1.00
15452;DHT22;7827;53.594;9.938;2023-09-19T14:50:13;19.70;1.00
15452;DHT22;7827;53.594;9.938;2023-09-19T14:52:42;19.70;1.00
15452;DHT22;7827;53.594;9.938;2023-09-19T14:55:11;19.60;1.00
15452;DHT22;7827;53.594;9.938;2023-09-19T14:57:42;19.70;1.00
15452;DHT22;7827;53.594;9.938;2023-09-19T15:00:13;19.70;1.00
15452;DHT22;7827;53.594;9.938;2023-09-19T15:02:43;19.70;1.00
15452;DHT22;7827;53.594;9.938;2023-09-19T15:05:14;19.70;1.00
15452;DHT22;7827;53.594;9.938;2023-09-19T15:07:46;19.70;1.00
15452;DHT22;7827;53.594;9.938;2023-09-19T15:10:15;19.70;1.00
15452;DHT22;7827;53.594;9.938;2023-09-19T15:12:45;19.70;2.90
15452;DHT22;7827;53.594;9.938;2023-09-19T15:15:14;19.60;40.20
15452;DHT22;7827;53.594;9.938;2023-09-19T15:17:43;19.60;1.00
15452;DHT22;7827;53.594;9.938;2023-09-19T15:20:13;19.50;77.10
15452;DHT22;7827;53.594;9.938;2023-09-19T15:22:42;19.50;99.90
15452;DHT22;7827;53.594;9.938;2023-09-19T15:25:11;19.40;99.90
15452;DHT22;7827;53.594;9.938;2023-09-19T15:27:39;19.50;99.90
15452;DHT22;7827;53.594;9.938;2023-09-19T15:30:09;19.50;99.90
15452;DHT22;7827;53.594;9.938;2023-09-19T15:32:38;19.60;99.90
15452;DHT22;7827;53.594;9.938;2023-09-19T15:35:07;19.50;1.00
15452;DHT22;7827;53.594;9.938;2023-09-19T15:37:42;19.50;1.00
15452;DHT22;7827;53.594;9.938;2023-09-19T15:40:11;19.50;99.90
15452;DHT22;7827;53.594;9.938;2023-09-19T15:42:40;19.60;99.90
15452;DHT22;7827;53.594;9.938;2023-09-19T15:45:09;19.50;1.00
15452;DHT22;7827;53.594;9.938;2023-09-19T15:47:38;19.50;1.00
15452;DHT22;7827;53.594;9.938;2023-09-19T15:50:07;19.50;1.00
15452;DHT22;7827;53.594;9.938;2023-09-19T15:52:37;19.40;1.00
15452;DHT22;7827;53.594;9.938;2023-09-19T15:55:11;19.40;1.00
15452;DHT22;7827;53.594;9.938;2023-09-19T15:57:39;19.40;1.00
15452;DHT22;7827;53.594;9.938;2023-09-19T16:00:11;19.40;1.00
15452;DHT22;7827;53.594;9.938;2023-09-19T16:02:45;19.40;1.00
15452;DHT22;7827;53.594;9.938;2023-09-19T16:05:13;19.40;1.00
15452;DHT22;7827;53.594;9.938;2023-09-19T16:07:42;19.40;1.00
15452;DHT22;7827;53.594;9.938;2023-09-19T16:10:12;19.40;1.00
15452;DHT22;7827;53.594;9.938;2023-09-19T16:12:42;19.40;1.00
15452;DHT22;7827;53.594;9.938;2023-09-19T16:15:10;19.40;1.00
15452;DHT22;7827;53.594;9.938;2023-09-19T16:17:43;19.40;1.00
15452;DHT22;7827;53.594;9.938;2023-09-19T16:20:12;19.30;1.00
15452;DHT22;7827;53.594;9.938;2023-09-19T16:22:40;19.30;1.00
15452;DHT22;7827;53.594;9.938;2023-09-19T16:25:09;19.30;1.00
15452;DHT22;7827;53.594;9.938;2023-09-19T16:27:40;19.20;1.00
15452;DHT22;7827;53.594;9.938;2023-09-19T16:30:09;19.30;1.00
15452;DHT22;7827;53.594;9.938;2023-09-19T16:32:39;19.30;1.00
15452;DHT22;7827;53.594;9.938;2023-09-19T16:35:07;19.60;1.00
15452;DHT22;7827;53.594;9.938;2023-09-19T16:37:37;19.50;1.00
15452;DHT22;7827;53.594;9.938;2023-09-19T16:40:07;19.40;1.00